sensor_id;sensor_type;location;lat;lon;timestamp;temperature;humidity
40538;DHT22;27925;41.874;12.526;2023-07-08T00:00:50;28.60;61.10
40538;DHT22;27925;41.874;12.526;2023-07-08T00:03:17;28.60;61.20
40538;DHT22;27925;41.874;12.526;2023-07-08T00:05:44;28.60;61.40
40538;DHT22;27925;41.874;12.526;2023-07-08T00:08:17;28.50;61.30
40538;DHT22;27925;41.874;12.526;2023-07-08T00:10:44;28.50;61.50
40538;DHT22;27925;41.874;12.526;2023-07-08T00:13:10;28.50;62.30
40538;DHT22;27925;41.874;12.526;2023-07-08T00:15:37;28.50;61.80
40538;DHT22;27925;41.874;12.526;2023-07-08T00:18:16;28.50;62.10
40538;DHT22;27925;41.874;12.526;2023-07-08T00:20:47;28.50;62.50
40538;DHT22;27925;41.874;12.526;2023-07-08T00:23:13;28.50;62.60
40538;DHT22;27925;41.874;12.526;2023-07-08T00:25:39;28.50;62.20
40538;DHT22;27925;41.874;12.526;2023-07-08T00:30:35;28.40;63.10
40538;DHT22;27925;41.874;12.526;2023-07-08T00:33:01;28.30;62.90
40538;DHT22;27925;41.874;12.526;2023-07-08T00:37:55;28.30;62.80
40538;DHT22;27925;41.874;12.526;2023-07-08T00:40:28;28.30;63.10
40538;DHT22;27925;41.874;12.526;2023-07-08T00:42:56;28.20;63.10
40538;DHT22;27925;41.874;12.526;2023-07-08T00:45:52;28.20;63.30
40538;DHT22;27925;41.874;12.526;2023-07-08T00:48:28;28.10;63.50
40538;DHT22;27925;41.874;12.526;2023-07-08T00:50:55;28.00;63.70
40538;DHT22;27925;41.874;12.526;2023-07-08T00:53:28;27.90;63.60
40538;DHT22;27925;41.874;12.526;2023-07-08T00:56:02;28.00;64.40
40538;DHT22;27925;41.874;12.526;2023-07-08T00:58:42;27.90;63.90
40538;DHT22;27925;41.874;12.526;2023-07-08T01:01:09;27.90;63.90
40538;DHT22;27925;41.874;12.526;2023-07-08T01:03:56;27.90;63.70
40538;DHT22;27925;41.874;12.526;2023-07-08T01:06:25;27.80;64.20
40538;DHT22;27925;41.874;12.526;2023-07-08T01:09:00;27.70;64.40
40538;DHT22;27925;41.874;12.526;2023-07-08T01:11:32;27.50;65.00
40538;DHT22;27925;41.874;12.526;2023-07-08T01:14:00;27.40;65.00
40538;DHT22;27925;41.874;12.526;2023-07-08T01:16:27;27.30;65.10
40538;DHT22;27925;41.874;12.526;2023-07-08T01:18:53;27.20;65.20
40538;DHT22;27925;41.874;12.526;2023-07-08T01:21:33;27.20;65.30
40538;DHT22;27925;41.874;12.526;2023-07-08T01:24:01;27.10;65.70
40538;DHT22;27925;41.874;12.526;2023-07-08T01:26:27;27.10;65.50
40538;DHT22;27925;41.874;12.526;2023-07-08T01:28:55;27.10;65.60
40538;DHT22;27925;41.874;12.526;2023-07-08T01:31:22;27.20;65.50
40538;DHT22;27925;41.874;12.526;2023-07-08T01:33:48;27.20;65.70
40538;DHT22;27925;41.874;12.526;2023-07-08T01:36:16;27.10;65.70
40538;DHT22;27925;41.874;12.526;2023-07-08T01:38:43;27.20;66.00
40538;DHT22;27925;41.874;12.526;2023-07-08T01:41:14;27.20;66.00
40538;DHT22;27925;41.874;12.526;2023-07-08T01:43:41;27.30;66.20
40538;DHT22;27925;41.874;12.526;2023-07-08T01:46:13;27.30;66.10
40538;DHT22;27925;41.874;12.526;2023-07-08T01:48:44;27.40;66.20
40538;DHT22;27925;41.874;12.526;2023-07-08T01:51:11;27.40;66.30
40538;DHT22;27925;41.874;12.526;2023-07-08T01:53:39;27.30;66.50
40538;DHT22;27925;41.874;12.526;2023-07-08T01:56:10;27.20;66.70
40538;DHT22;27925;41.874;12.526;2023-07-08T01:58:36;27.20;66.70
40538;DHT22;27925;41.874;12.526;2023-07-08T02:01:01;27.20;66.90
40538;DHT22;27925;41.874;12.526;2023-07-08T02:03:28;27.20;66.90
40538;DHT22;27925;41.874;12.526;2023-07-08T02:05:54;27.20;67.20
40538;DHT22;27925;41.874;12.526;2023-07-08T02:08:20;27.10;67.10
40538;DHT22;27925;41.874;12.526;2023-07-08T02:10:50;27.10;67.30
40538;DHT22;27925;41.874;12.526;2023-07-08T02:13:16;27.10;67.30
40538;DHT22;27925;41.874;12.526;2023-07-08T02:15:42;27.10;68.00
40538;DHT22;27925;41.874;12.526;2023-07-08T02:18:07;27.10;67.50
40538;DHT22;27925;41.874;12.526;2023-07-08T02:20:33;27.10;68.00
40538;DHT22;27925;41.874;12.526;2023-07-08T02:22:59;27.10;68.60
40538;DHT22;27925;41.874;12.526;2023-07-08T02:25:24;27.00;67.90
40538;DHT22;27925;41.874;12.526;2023-07-08T02:27:50;27.00;67.90
40538;DHT22;27925;41.874;12.526;2023-07-08T02:30:16;26.90;68.10
40538;DHT22;27925;41.874;12.526;2023-07-08T02:32:42;26.90;68.70
40538;DHT22;27925;41.874;12.526;2023-07-08T02:35:14;26.90;68.60
40538;DHT22;27925;41.874;12.526;2023-07-08T02:37:39;26.80;68.50
40538;DHT22;27925;41.874;12.526;2023-07-08T02:40:06;26.90;69.00
40538;DHT22;27925;41.874;12.526;2023-07-08T02:42:31;27.00;68.20
40538;DHT22;27925;41.874;12.526;2023-07-08T02:44:57;27.00;68.00
40538;DHT22;27925;41.874;12.526;2023-07-08T02:47:23;27.00;67.90
40538;DHT22;27925;41.874;12.526;2023-07-08T02:49:49;27.00;68.10
40538;DHT22;27925;41.874;12.526;2023-07-08T02:52:16;27.10;68.10
40538;DHT22;27925;41.874;12.526;2023-07-08T02:54:41;27.10;67.90
40538;DHT22;27925;41.874;12.526;2023-07-08T02:57:07;27.10;67.90
40538;DHT22;27925;41.874;12.526;2023-07-08T02:59:33;27.10;68.00
40538;DHT22;27925;41.874;12.526;2023-07-08T03:01:58;27.00;67.90
40538;DHT22;27925;41.874;12.526;2023-07-08T03:04:24;26.90;68.10
40538;DHT22;27925;41.874;12.526;2023-07-08T03:06:51;26.80;68.40
40538;DHT22;27925;41.874;12.526;2023-07-08T03:09:16;26.80;68.60
40538;DHT22;27925;41.874;12.526;2023-07-08T03:11:43;26.80;68.60
40538;DHT22;27925;41.874;12.526;2023-07-08T03:14:09;26.80;68.60
40538;DHT22;27925;41.874;12.526;2023-07-08T03:16:35;26.80;68.60
40538;DHT22;27925;41.874;12.526;2023-07-08T03:19:00;26.80;68.70
40538;DHT22;27925;41.874;12.526;2023-07-08T03:21:26;26.80;68.60
40538;DHT22;27925;41.874;12.526;2023-07-08T03:23:52;26.80;68.60
40538;DHT22;27925;41.874;12.526;2023-07-08T03:26:25;26.80;68.50
40538;DHT22;27925;41.874;12.526;2023-07-08T03:28:51;26.80;68.20
40538;DHT22;27925;41.874;12.526;2023-07-08T03:31:17;26.70;68.60
40538;DHT22;27925;41.874;12.526;2023-07-08T03:33:42;26.70;68.40
40538;DHT22;27925;41.874;12.526;2023-07-08T03:36:16;26.60;68.50
40538;DHT22;27925;41.874;12.526;2023-07-08T03:38:50;26.60;68.70
40538;DHT22;27925;41.874;12.526;2023-07-08T03:41:17;26.60;68.60
40538;DHT22;27925;41.874;12.526;2023-07-08T03:43:43;26.70;68.50
40538;DHT22;27925;41.874;12.526;2023-07-08T03:46:11;26.60;68.50
40538;DHT22;27925;41.874;12.526;2023-07-08T03:48:37;26.60;68.60
40538;DHT22;27925;41.874;12.526;2023-07-08T03:51:04;26.60;68.70
40538;DHT22;27925;41.874;12.526;2023-07-08T03:53:30;26.50;68.70
40538;DHT22;27925;41.874;12.526;2023-07-08T03:55:55;26.50;69.30
40538;DHT22;27925;41.874;12.526;2023-07-08T03:58:21;26.40;69.30
40538;DHT22;27925;41.874;12.526;2023-07-08T04:00:46;26.50;69.30
40538;DHT22;27925;41.874;12.526;2023-07-08T04:03:12;26.40;69.30
40538;DHT22;27925;41.874;12.526;2023-07-08T04:05:38;26.50;69.20
40538;DHT22;27925;41.874;12.526;2023-07-08T04:08:04;26.50;69.20
40538;DHT22;27925;41.874;12.526;2023-07-08T04:10:30;26.50;69.40
40538;DHT22;27925;41.874;12.526;2023-07-08T04:12:55;26.40;69.30
40538;DHT22;27925;41.874;12.526;2023-07-08T04:15:21;26.40;69.20
40538;DHT22;27925;41.874;12.526;2023-07-08T04:17:51;26.30;69.30
40538;DHT22;27925;41.874;12.526;2023-07-08T04:20:19;26.30;69.50
40538;DHT22;27925;41.874;12.526;2023-07-08T04:22:45;26.30;69.50
40538;DHT22;27925;41.874;12.526;2023-07-08T04:25:12;26.30;69.50
40538;DHT22;27925;41.874;12.526;2023-07-08T04:27:40;26.30;69.70
40538;DHT22;27925;41.874;12.526;2023-07-08T04:30:07;26.30;69.60
40538;DHT22;27925;41.874;12.526;2023-07-08T04:32:33;26.30;69.70
40538;DHT22;27925;41.874;12.526;2023-07-08T04:34:58;26.30;69.90
40538;DHT22;27925;41.874;12.526;2023-07-08T04:37:25;26.20;70.10
40538;DHT22;27925;41.874;12.526;2023-07-08T04:39:51;26.30;69.90
40538;DHT22;27925;41.874;12.526;2023-07-08T04:42:16;26.30;69.50
40538;DHT22;27925;41.874;12.526;2023-07-08T04:44:43;26.40;69.60
40538;DHT22;27925;41.874;12.526;2023-07-08T04:47:09;26.50;69.70
40538;DHT22;27925;41.874;12.526;2023-07-08T04:49:37;26.40;69.60
40538;DHT22;27925;41.874;12.526;2023-07-08T04:52:02;26.50;69.50
40538;DHT22;27925;41.874;12.526;2023-07-08T04:54:29;26.50;68.90
40538;DHT22;27925;41.874;12.526;2023-07-08T04:56:54;26.60;69.00
40538;DHT22;27925;41.874;12.526;2023-07-08T04:59:23;26.70;68.60
40538;DHT22;27925;41.874;12.526;2023-07-08T05:01:49;26.70;68.40
40538;DHT22;27925;41.874;12.526;2023-07-08T05:04:17;26.80;68.20
40538;DHT22;27925;41.874;12.526;2023-07-08T05:06:43;26.80;68.00
40538;DHT22;27925;41.874;12.526;2023-07-08T05:09:09;27.00;67.90
40538;DHT22;27925;41.874;12.526;2023-07-08T05:11:36;27.10;67.60
40538;DHT22;27925;41.874;12.526;2023-07-08T05:14:02;27.10;67.30
40538;DHT22;27925;41.874;12.526;2023-07-08T05:16:28;27.20;67.00
40538;DHT22;27925;41.874;12.526;2023-07-08T05:18:54;27.20;66.50
40538;DHT22;27925;41.874;12.526;2023-07-08T05:21:20;27.30;66.40
40538;DHT22;27925;41.874;12.526;2023-07-08T05:23:47;27.40;66.10
40538;DHT22;27925;41.874;12.526;2023-07-08T05:26:15;27.60;65.80
40538;DHT22;27925;41.874;12.526;2023-07-08T05:28:41;27.80;65.80
40538;DHT22;27925;41.874;12.526;2023-07-08T05:31:07;28.00;65.20
40538;DHT22;27925;41.874;12.526;2023-07-08T05:33:33;28.20;64.50
40538;DHT22;27925;41.874;12.526;2023-07-08T05:36:00;28.40;64.40
40538;DHT22;27925;41.874;12.526;2023-07-08T05:38:27;28.70;63.60
40538;DHT22;27925;41.874;12.526;2023-07-08T05:40:57;28.80;63.30
40538;DHT22;27925;41.874;12.526;2023-07-08T05:43:24;29.20;62.80
40538;DHT22;27925;41.874;12.526;2023-07-08T05:45:50;29.30;61.70
40538;DHT22;27925;41.874;12.526;2023-07-08T05:48:16;29.50;61.70
40538;DHT22;27925;41.874;12.526;2023-07-08T05:50:42;29.60;61.00
40538;DHT22;27925;41.874;12.526;2023-07-08T05:53:10;29.80;60.50
40538;DHT22;27925;41.874;12.526;2023-07-08T05:55:37;29.90;60.00
40538;DHT22;27925;41.874;12.526;2023-07-08T05:58:03;30.30;59.40
40538;DHT22;27925;41.874;12.526;2023-07-08T06:00:28;30.50;59.10
40538;DHT22;27925;41.874;12.526;2023-07-08T06:02:54;30.80;58.30
40538;DHT22;27925;41.874;12.526;2023-07-08T06:05:20;30.70;58.00
40538;DHT22;27925;41.874;12.526;2023-07-08T06:07:46;30.50;58.30
40538;DHT22;27925;41.874;12.526;2023-07-08T06:10:11;30.40;58.60
40538;DHT22;27925;41.874;12.526;2023-07-08T06:12:37;30.60;58.50
40538;DHT22;27925;41.874;12.526;2023-07-08T06:15:03;30.90;57.90
40538;DHT22;27925;41.874;12.526;2023-07-08T06:17:29;31.20;57.20
40538;DHT22;27925;41.874;12.526;2023-07-08T06:19:55;31.50;56.60
40538;DHT22;27925;41.874;12.526;2023-07-08T06:22:20;31.40;56.80
40538;DHT22;27925;41.874;12.526;2023-07-08T06:24:46;31.10;56.50
40538;DHT22;27925;41.874;12.526;2023-07-08T06:27:13;31.20;56.60
40538;DHT22;27925;41.874;12.526;2023-07-08T06:29:39;31.50;57.00
40538;DHT22;27925;41.874;12.526;2023-07-08T06:32:05;31.80;55.90
40538;DHT22;27925;41.874;12.526;2023-07-08T06:34:31;31.90;55.40
40538;DHT22;27925;41.874;12.526;2023-07-08T06:36:57;32.20;55.30
40538;DHT22;27925;41.874;12.526;2023-07-08T06:39:23;32.50;55.00
40538;DHT22;27925;41.874;12.526;2023-07-08T06:41:49;32.60;54.60
40538;DHT22;27925;41.874;12.526;2023-07-08T06:44:15;32.80;54.20
40538;DHT22;27925;41.874;12.526;2023-07-08T06:46:40;32.90;53.80
40538;DHT22;27925;41.874;12.526;2023-07-08T06:49:06;32.90;53.70
40538;DHT22;27925;41.874;12.526;2023-07-08T06:51:35;32.90;53.10
40538;DHT22;27925;41.874;12.526;2023-07-08T06:54:02;33.10;53.60
40538;DHT22;27925;41.874;12.526;2023-07-08T06:56:37;33.20;52.60
40538;DHT22;27925;41.874;12.526;2023-07-08T06:59:04;33.40;53.30
40538;DHT22;27925;41.874;12.526;2023-07-08T07:01:30;33.40;53.10
40538;DHT22;27925;41.874;12.526;2023-07-08T07:03:56;33.40;53.00
40538;DHT22;27925;41.874;12.526;2023-07-08T07:06:21;33.50;52.90
40538;DHT22;27925;41.874;12.526;2023-07-08T07:08:47;33.70;52.90
40538;DHT22;27925;41.874;12.526;2023-07-08T07:11:13;33.80;52.90
40538;DHT22;27925;41.874;12.526;2023-07-08T07:13:39;33.80;52.60
40538;DHT22;27925;41.874;12.526;2023-07-08T07:16:05;33.90;52.40
40538;DHT22;27925;41.874;12.526;2023-07-08T07:18:31;34.00;52.70
40538;DHT22;27925;41.874;12.526;2023-07-08T07:20:58;34.10;52.40
40538;DHT22;27925;41.874;12.526;2023-07-08T07:23:24;34.20;52.20
40538;DHT22;27925;41.874;12.526;2023-07-08T07:25:50;34.30;51.90
40538;DHT22;27925;41.874;12.526;2023-07-08T07:28:16;34.30;51.60
40538;DHT22;27925;41.874;12.526;2023-07-08T07:30:45;34.20;51.50
40538;DHT22;27925;41.874;12.526;2023-07-08T07:33:12;34.20;51.80
40538;DHT22;27925;41.874;12.526;2023-07-08T07:35:47;34.20;52.40
40538;DHT22;27925;41.874;12.526;2023-07-08T07:38:14;34.20;51.70
40538;DHT22;27925;41.874;12.526;2023-07-08T07:40:40;34.10;51.60
40538;DHT22;27925;41.874;12.526;2023-07-08T07:43:06;34.00;51.60
40538;DHT22;27925;41.874;12.526;2023-07-08T07:45:32;34.00;51.70
40538;DHT22;27925;41.874;12.526;2023-07-08T07:47:57;34.00;51.50
40538;DHT22;27925;41.874;12.526;2023-07-08T07:50:23;34.00;51.50
40538;DHT22;27925;41.874;12.526;2023-07-08T07:52:49;34.10;51.60
40538;DHT22;27925;41.874;12.526;2023-07-08T07:55:15;34.00;51.60
40538;DHT22;27925;41.874;12.526;2023-07-08T07:57:40;33.90;51.60
40538;DHT22;27925;41.874;12.526;2023-07-08T08:00:08;33.80;51.70
40538;DHT22;27925;41.874;12.526;2023-07-08T08:02:34;33.80;51.60
40538;DHT22;27925;41.874;12.526;2023-07-08T08:05:00;33.70;51.90
40538;DHT22;27925;41.874;12.526;2023-07-08T08:07:26;33.80;52.20
40538;DHT22;27925;41.874;12.526;2023-07-08T08:09:52;33.90;52.00
40538;DHT22;27925;41.874;12.526;2023-07-08T08:12:18;33.90;51.90
40538;DHT22;27925;41.874;12.526;2023-07-08T08:14:44;33.90;51.80
40538;DHT22;27925;41.874;12.526;2023-07-08T08:17:09;33.80;52.10
40538;DHT22;27925;41.874;12.526;2023-07-08T08:19:35;33.60;52.20
40538;DHT22;27925;41.874;12.526;2023-07-08T08:22:01;33.60;52.40
40538;DHT22;27925;41.874;12.526;2023-07-08T08:24:27;33.50;52.30
40538;DHT22;27925;41.874;12.526;2023-07-08T08:26:52;33.60;52.50
40538;DHT22;27925;41.874;12.526;2023-07-08T08:29:18;33.40;52.50
40538;DHT22;27925;41.874;12.526;2023-07-08T08:31:44;33.40;52.70
40538;DHT22;27925;41.874;12.526;2023-07-08T08:34:09;33.30;52.80
40538;DHT22;27925;41.874;12.526;2023-07-08T08:36:35;33.20;53.00
40538;DHT22;27925;41.874;12.526;2023-07-08T08:39:01;33.20;53.20
40538;DHT22;27925;41.874;12.526;2023-07-08T08:41:31;33.10;53.30
40538;DHT22;27925;41.874;12.526;2023-07-08T08:43:58;33.10;53.50
40538;DHT22;27925;41.874;12.526;2023-07-08T08:51:47;33.00;53.80
40538;DHT22;27925;41.874;12.526;2023-07-08T08:54:13;32.90;53.80
40538;DHT22;27925;41.874;12.526;2023-07-08T08:59:44;32.80;53.70
40538;DHT22;27925;41.874;12.526;2023-07-08T09:05:19;32.80;53.40
40538;DHT22;27925;41.874;12.526;2023-07-08T09:07:58;32.80;53.20
40538;DHT22;27925;41.874;12.526;2023-07-08T09:10:39;32.80;53.30
40538;DHT22;27925;41.874;12.526;2023-07-08T09:13:07;32.80;53.30
40538;DHT22;27925;41.874;12.526;2023-07-08T09:15:33;32.90;54.40
40538;DHT22;27925;41.874;12.526;2023-07-08T09:18:12;32.90;54.50
40538;DHT22;27925;41.874;12.526;2023-07-08T09:20:40;32.90;54.50
40538;DHT22;27925;41.874;12.526;2023-07-08T09:23:18;32.90;54.30
40538;DHT22;27925;41.874;12.526;2023-07-08T09:25:51;32.90;54.40
40538;DHT22;27925;41.874;12.526;2023-07-08T09:28:18;32.90;54.40
40538;DHT22;27925;41.874;12.526;2023-07-08T09:30:48;32.80;54.50
40538;DHT22;27925;41.874;12.526;2023-07-08T09:33:17;32.80;54.60
40538;DHT22;27925;41.874;12.526;2023-07-08T09:35:47;32.80;54.60
40538;DHT22;27925;41.874;12.526;2023-07-08T09:38:18;32.80;54.80
40538;DHT22;27925;41.874;12.526;2023-07-08T09:40:48;32.90;54.70
40538;DHT22;27925;41.874;12.526;2023-07-08T09:45:46;33.00;54.70
40538;DHT22;27925;41.874;12.526;2023-07-08T09:48:18;33.00;54.50
40538;DHT22;27925;41.874;12.526;2023-07-08T09:50:48;33.00;54.60
40538;DHT22;27925;41.874;12.526;2023-07-08T09:53:14;33.10;54.70
40538;DHT22;27925;41.874;12.526;2023-07-08T09:55:40;33.00;54.60
40538;DHT22;27925;41.874;12.526;2023-07-08T09:58:15;33.00;54.60
40538;DHT22;27925;41.874;12.526;2023-07-08T10:00:51;33.10;53.70
40538;DHT22;27925;41.874;12.526;2023-07-08T10:03:25;33.10;54.60
40538;DHT22;27925;41.874;12.526;2023-07-08T10:05:53;33.10;54.70
40538;DHT22;27925;41.874;12.526;2023-07-08T10:08:24;33.20;54.60
40538;DHT22;27925;41.874;12.526;2023-07-08T10:10:58;33.20;54.50
40538;DHT22;27925;41.874;12.526;2023-07-08T10:13:40;33.20;54.40
40538;DHT22;27925;41.874;12.526;2023-07-08T10:18:39;33.20;54.20
40538;DHT22;27925;41.874;12.526;2023-07-08T10:23:51;33.30;53.20
40538;DHT22;27925;41.874;12.526;2023-07-08T10:26:28;33.40;53.10
40538;DHT22;27925;41.874;12.526;2023-07-08T10:34:13;33.40;54.00
40538;DHT22;27925;41.874;12.526;2023-07-08T10:48:00;33.80;52.60
40538;DHT22;27925;41.874;12.526;2023-07-08T10:56:21;33.80;52.20
40538;DHT22;27925;41.874;12.526;2023-07-08T10:59:24;33.90;53.00
40538;DHT22;27925;41.874;12.526;2023-07-08T11:07:28;34.00;51.70
40538;DHT22;27925;41.874;12.526;2023-07-08T11:10:02;34.10;52.00
40538;DHT22;27925;41.874;12.526;2023-07-08T11:15:15;34.20;52.30
40538;DHT22;27925;41.874;12.526;2023-07-08T11:18:08;34.10;51.10
40538;DHT22;27925;41.874;12.526;2023-07-08T11:20:52;34.10;51.40
40538;DHT22;27925;41.874;12.526;2023-07-08T11:23:48;34.10;51.20
40538;DHT22;27925;41.874;12.526;2023-07-08T11:29:00;34.30;51.10
40538;DHT22;27925;41.874;12.526;2023-07-08T11:31:31;34.40;51.80
40538;DHT22;27925;41.874;12.526;2023-07-08T11:33:58;34.40;51.80
40538;DHT22;27925;41.874;12.526;2023-07-08T11:36:25;34.40;51.80
40538;DHT22;27925;41.874;12.526;2023-07-08T11:38:54;34.40;51.90
40538;DHT22;27925;41.874;12.526;2023-07-08T11:41:22;34.60;51.80
40538;DHT22;27925;41.874;12.526;2023-07-08T11:43:51;34.60;51.20
40538;DHT22;27925;41.874;12.526;2023-07-08T11:46:23;34.70;51.10
40538;DHT22;27925;41.874;12.526;2023-07-08T11:48:55;34.70;50.80
40538;DHT22;27925;41.874;12.526;2023-07-08T11:51:27;34.90;50.90
40538;DHT22;27925;41.874;12.526;2023-07-08T11:54:27;34.90;50.90
40538;DHT22;27925;41.874;12.526;2023-07-08T11:57:00;35.00;50.00
40538;DHT22;27925;41.874;12.526;2023-07-08T11:59:31;34.90;51.10
40538;DHT22;27925;41.874;12.526;2023-07-08T12:02:18;35.00;51.00
40538;DHT22;27925;41.874;12.526;2023-07-08T12:05:00;35.00;51.00
40538;DHT22;27925;41.874;12.526;2023-07-08T12:07:33;35.10;50.90
40538;DHT22;27925;41.874;12.526;2023-07-08T12:10:16;35.10;51.00
40538;DHT22;27925;41.874;12.526;2023-07-08T12:12:45;35.20;50.70
40538;DHT22;27925;41.874;12.526;2023-07-08T12:15:16;35.30;50.80
40538;DHT22;27925;41.874;12.526;2023-07-08T12:17:44;35.30;50.40
40538;DHT22;27925;41.874;12.526;2023-07-08T12:20:19;35.30;50.20
40538;DHT22;27925;41.874;12.526;2023-07-08T12:22:47;35.20;50.10
40538;DHT22;27925;41.874;12.526;2023-07-08T12:25:18;35.20;50.00
40538;DHT22;27925;41.874;12.526;2023-07-08T12:27:46;35.20;49.90
40538;DHT22;27925;41.874;12.526;2023-07-08T12:30:13;35.10;49.80
40538;DHT22;27925;41.874;12.526;2023-07-08T12:32:40;35.20;49.80
40538;DHT22;27925;41.874;12.526;2023-07-08T12:35:23;35.20;49.60
40538;DHT22;27925;41.874;12.526;2023-07-08T12:37:51;35.20;49.30
40538;DHT22;27925;41.874;12.526;2023-07-08T12:40:17;35.30;49.40
40538;DHT22;27925;41.874;12.526;2023-07-08T12:42:44;35.30;49.30
40538;DHT22;27925;41.874;12.526;2023-07-08T12:45:19;35.40;49.30
40538;DHT22;27925;41.874;12.526;2023-07-08T12:47:46;35.60;49.50
40538;DHT22;27925;41.874;12.526;2023-07-08T12:50:12;35.60;49.80
40538;DHT22;27925;41.874;12.526;2023-07-08T12:52:39;35.60;49.90
40538;DHT22;27925;41.874;12.526;2023-07-08T12:55:05;35.70;49.70
40538;DHT22;27925;41.874;12.526;2023-07-08T12:57:31;35.80;49.90
40538;DHT22;27925;41.874;12.526;2023-07-08T12:59:58;35.90;50.80
40538;DHT22;27925;41.874;12.526;2023-07-08T13:02:25;35.90;51.40
40538;DHT22;27925;41.874;12.526;2023-07-08T13:04:58;35.90;52.00
40538;DHT22;27925;41.874;12.526;2023-07-08T13:07:36;35.90;52.20
40538;DHT22;27925;41.874;12.526;2023-07-08T13:10:05;35.90;52.20
40538;DHT22;27925;41.874;12.526;2023-07-08T13:12:34;35.90;52.00
40538;DHT22;27925;41.874;12.526;2023-07-08T13:15:02;35.90;52.20
40538;DHT22;27925;41.874;12.526;2023-07-08T13:17:28;35.90;52.20
40538;DHT22;27925;41.874;12.526;2023-07-08T13:19:55;35.90;52.20
40538;DHT22;27925;41.874;12.526;2023-07-08T13:22:22;35.90;52.20
40538;DHT22;27925;41.874;12.526;2023-07-08T13:24:49;35.90;52.90
40538;DHT22;27925;41.874;12.526;2023-07-08T13:27:26;35.80;52.40
40538;DHT22;27925;41.874;12.526;2023-07-08T13:29:53;35.80;52.30
40538;DHT22;27925;41.874;12.526;2023-07-08T13:32:19;35.70;52.30
40538;DHT22;27925;41.874;12.526;2023-07-08T13:34:48;35.80;52.20
40538;DHT22;27925;41.874;12.526;2023-07-08T13:37:14;35.80;52.10
40538;DHT22;27925;41.874;12.526;2023-07-08T13:39:44;35.80;51.90
40538;DHT22;27925;41.874;12.526;2023-07-08T13:42:10;35.80;51.60
40538;DHT22;27925;41.874;12.526;2023-07-08T13:44:46;35.80;51.60
40538;DHT22;27925;41.874;12.526;2023-07-08T13:47:29;35.80;51.00
40538;DHT22;27925;41.874;12.526;2023-07-08T13:50:14;35.70;50.80
40538;DHT22;27925;41.874;12.526;2023-07-08T13:52:44;35.60;50.60
40538;DHT22;27925;41.874;12.526;2023-07-08T13:55:17;35.60;50.50
40538;DHT22;27925;41.874;12.526;2023-07-08T13:57:44;35.60;50.50
40538;DHT22;27925;41.874;12.526;2023-07-08T14:00:11;35.60;50.50
40538;DHT22;27925;41.874;12.526;2023-07-08T14:02:39;35.60;50.50
40538;DHT22;27925;41.874;12.526;2023-07-08T14:05:12;35.60;50.60
40538;DHT22;27925;41.874;12.526;2023-07-08T14:07:39;35.50;50.40
40538;DHT22;27925;41.874;12.526;2023-07-08T14:10:12;35.50;50.30
40538;DHT22;27925;41.874;12.526;2023-07-08T14:12:38;35.50;50.40
40538;DHT22;27925;41.874;12.526;2023-07-08T14:15:04;35.50;50.10
40538;DHT22;27925;41.874;12.526;2023-07-08T14:17:31;35.60;50.10
40538;DHT22;27925;41.874;12.526;2023-07-08T14:19:57;35.60;50.00
40538;DHT22;27925;41.874;12.526;2023-07-08T14:22:30;35.60;49.90
40538;DHT22;27925;41.874;12.526;2023-07-08T14:24:58;35.50;50.10
40538;DHT22;27925;41.874;12.526;2023-07-08T14:27:26;35.50;50.00
40538;DHT22;27925;41.874;12.526;2023-07-08T14:29:52;35.60;49.90
40538;DHT22;27925;41.874;12.526;2023-07-08T14:32:26;35.60;49.70
40538;DHT22;27925;41.874;12.526;2023-07-08T14:34:56;35.60;49.60
40538;DHT22;27925;41.874;12.526;2023-07-08T14:37:22;35.60;49.70
40538;DHT22;27925;41.874;12.526;2023-07-08T14:39:49;35.50;49.60
40538;DHT22;27925;41.874;12.526;2023-07-08T14:42:16;35.50;49.30
40538;DHT22;27925;41.874;12.526;2023-07-08T14:44:47;35.40;49.30
40538;DHT22;27925;41.874;12.526;2023-07-08T14:47:16;35.30;49.10
40538;DHT22;27925;41.874;12.526;2023-07-08T14:49:42;35.30;49.40
40538;DHT22;27925;41.874;12.526;2023-07-08T14:52:08;35.30;49.40
40538;DHT22;27925;41.874;12.526;2023-07-08T14:54:34;35.30;49.50
40538;DHT22;27925;41.874;12.526;2023-07-08T14:57:00;35.40;49.40
40538;DHT22;27925;41.874;12.526;2023-07-08T14:59:30;35.40;49.30
40538;DHT22;27925;41.874;12.526;2023-07-08T15:01:58;35.40;49.30
40538;DHT22;27925;41.874;12.526;2023-07-08T15:04:24;35.40;49.30
40538;DHT22;27925;41.874;12.526;2023-07-08T15:06:50;35.30;49.10
40538;DHT22;27925;41.874;12.526;2023-07-08T15:09:17;35.30;49.20
40538;DHT22;27925;41.874;12.526;2023-07-08T15:11:44;35.30;49.40
40538;DHT22;27925;41.874;12.526;2023-07-08T15:14:28;35.30;49.30
40538;DHT22;27925;41.874;12.526;2023-07-08T15:16:54;35.30;49.10
40538;DHT22;27925;41.874;12.526;2023-07-08T15:19:20;35.30;48.70
40538;DHT22;27925;41.874;12.526;2023-07-08T15:21:46;35.30;48.90
40538;DHT22;27925;41.874;12.526;2023-07-08T15:24:13;35.30;48.80
40538;DHT22;27925;41.874;12.526;2023-07-08T15:26:43;35.30;49.00
40538;DHT22;27925;41.874;12.526;2023-07-08T15:29:18;35.30;48.80
40538;DHT22;27925;41.874;12.526;2023-07-08T15:31:44;35.30;48.70
40538;DHT22;27925;41.874;12.526;2023-07-08T15:34:18;35.30;48.70
40538;DHT22;27925;41.874;12.526;2023-07-08T15:36:44;35.20;48.60
40538;DHT22;27925;41.874;12.526;2023-07-08T15:39:10;35.20;48.50
40538;DHT22;27925;41.874;12.526;2023-07-08T15:41:36;35.20;48.60
40538;DHT22;27925;41.874;12.526;2023-07-08T15:44:04;35.20;48.40
40538;DHT22;27925;41.874;12.526;2023-07-08T15:46:32;35.20;48.10
40538;DHT22;27925;41.874;12.526;2023-07-08T15:48:59;35.20;48.00
40538;DHT22;27925;41.874;12.526;2023-07-08T15:51:25;35.10;47.90
40538;DHT22;27925;41.874;12.526;2023-07-08T15:53:50;35.10;47.80
40538;DHT22;27925;41.874;12.526;2023-07-08T15:56:19;35.10;47.70
40538;DHT22;27925;41.874;12.526;2023-07-08T15:58:45;35.00;47.80
40538;DHT22;27925;41.874;12.526;2023-07-08T16:01:17;35.00;47.80
40538;DHT22;27925;41.874;12.526;2023-07-08T16:03:45;35.00;48.00
40538;DHT22;27925;41.874;12.526;2023-07-08T16:06:11;34.90;47.90
40538;DHT22;27925;41.874;12.526;2023-07-08T16:08:37;34.90;47.90
40538;DHT22;27925;41.874;12.526;2023-07-08T16:11:08;34.90;48.20
40538;DHT22;27925;41.874;12.526;2023-07-08T16:13:37;34.90;48.20
40538;DHT22;27925;41.874;12.526;2023-07-08T16:16:04;34.90;48.30
40538;DHT22;27925;41.874;12.526;2023-07-08T16:18:30;34.90;48.30
40538;DHT22;27925;41.874;12.526;2023-07-08T16:20:56;34.90;48.30